Time;durP1;ratioP1;P1;durP2;ratioP2;P2;SDS_P1;SDS_P2;PMS_P1;PMS_P2;Temp;Humidity;BMP_temperature;BMP_pressure;BME280_temperature;BME280_humidity;BME280_pressure;Samples;Min_cycle;Max_cycle;Signal;HPM_P1;HPM_P2
2023/07/28 00:01:25;;;;;;;5.53;1.70;;;;;;;22.30;62.04;99781.78;5031446;28;20064;-76
2023/07/28 00:03:51;;;;;;;4.97;1.67;;;;;;;22.31;61.91;99784.41;5034151;28;20025;-75
2023/07/28 00:06:16;;;;;;;4.93;1.60;;;;;;;22.32;61.76;99780.75;5024330;28;20128;-75
2023/07/28 00:08:42;;;;;;;6.17;1.83;;;;;;;22.28;61.87;99787.22;5022464;28;20034;-75
2023/07/28 00:11:14;;;;;;;5.20;1.67;;;;;;;22.26;62.02;99777.56;5032588;28;20445;-75
2023/07/28 00:13:41;;;;;;;4.75;1.77;;;;;;;22.27;61.73;99779.31;5035731;28;20022;-75
2023/07/28 00:16:07;;;;;;;4.07;1.15;;;;;;;22.29;61.85;99780.06;5035156;28;20033;-75
2023/07/28 00:18:33;;;;;;;4.55;1.60;;;;;;;22.34;61.88;99778.84;5034475;28;20124;-75
2023/07/28 00:20:58;;;;;;;5.83;1.40;;;;;;;22.36;61.68;99790.34;5035106;28;20083;-75
2023/07/28 00:23:24;;;;;;;6.27;1.70;;;;;;;22.36;61.85;99793.00;5034032;28;20045;-75
2023/07/28 00:25:49;;;;;;;4.68;1.50;;;;;;;22.30;61.79;99798.72;5036275;28;20025;-75
2023/07/28 00:28:15;;;;;;;5.93;1.60;;;;;;;22.27;62.24;99792.72;5035747;28;20033;-75
2023/07/28 00:30:40;;;;;;;5.10;1.60;;;;;;;22.18;62.10;99799.50;5036352;28;20100;-75
2023/07/28 00:33:05;;;;;;;4.77;1.80;;;;;;;22.10;62.50;99805.31;5033518;28;20072;-75
2023/07/28 00:35:31;;;;;;;4.77;1.63;;;;;;;21.99;62.61;99807.78;5036288;28;20268;-75
2023/07/28 00:37:57;;;;;;;4.63;1.60;;;;;;;21.92;62.85;99810.78;5036092;28;20071;-75
2023/07/28 00:40:22;;;;;;;4.70;1.48;;;;;;;21.89;62.98;99810.97;5035898;28;20383;-75
2023/07/28 00:42:48;;;;;;;5.40;1.70;;;;;;;21.87;63.04;99812.88;5046266;28;20043;-75
2023/07/28 00:45:13;;;;;;;6.27;1.50;;;;;;;21.82;63.25;99803.38;5048996;28;20404;-75
2023/07/28 00:47:39;;;;;;;6.45;1.80;;;;;;;21.69;63.48;99793.41;5039639;28;20397;-75
2023/07/28 00:50:06;;;;;;;5.60;1.90;;;;;;;21.61;63.53;99795.63;5034595;28;20032;-75
2023/07/28 00:52:32;;;;;;;6.40;1.90;;;;;;;21.54;63.62;99794.25;5035800;28;20021;-75
2023/07/28 00:54:57;;;;;;;7.10;1.80;;;;;;;21.49;63.87;99803.41;5039328;28;20025;-75
2023/07/28 00:57:23;;;;;;;7.07;1.60;;;;;;;21.52;63.81;99808.59;5039039;28;20030;-75
2023/07/28 00:59:48;;;;;;;5.20;1.90;;;;;;;21.50;64.07;99807.81;5040313;28;20102;-75
2023/07/28 01:02:14;;;;;;;6.97;1.70;;;;;;;21.48;64.12;99790.13;5040006;28;20029;-75
2023/07/28 01:04:40;;;;;;;7.40;1.80;;;;;;;21.50;64.05;99793.56;5037417;28;20049;-75
2023/07/28 01:07:44;;;;;;;6.05;1.67;;;;;;;21.55;64.85;99799.53;5033883;28;20086;-75
2023/07/28 01:10:14;;;;;;;7.30;1.57;;;;;;;21.59;63.79;99809.09;5040777;28;20059;-75
2023/07/28 01:12:40;;;;;;;10.10;1.77;;;;;;;21.58;64.12;99809.19;5038712;28;20037;-75
2023/07/28 01:15:06;;;;;;;7.60;1.87;;;;;;;21.51;64.03;99812.22;5039156;28;20025;-75
2023/07/28 01:17:32;;;;;;;4.37;1.57;;;;;;;21.51;63.85;99806.88;5039091;28;20267;-75
2023/07/28 01:19:58;;;;;;;5.85;1.73;;;;;;;21.43;64.44;99806.44;5039193;28;20029;-75
2023/07/28 01:23:01;;;;;;;4.93;1.63;;;;;;;21.35;65.28;99806.03;5037278;28;20463;-75
2023/07/28 01:25:57;;;;;;;5.97;1.93;;;;;;;21.29;64.91;99809.03;5036605;28;20254;-75
2023/07/28 01:28:23;;;;;;;7.15;1.98;;;;;;;21.25;64.63;99816.41;5038572;28;20043;-75
2023/07/28 01:30:49;;;;;;;5.95;1.80;;;;;;;21.25;64.80;99826.22;5039002;28;20120;-75
2023/07/28 01:33:14;;;;;;;5.97;1.70;;;;;;;21.22;65.05;99827.28;5036348;28;20085;-75
2023/07/28 01:35:40;;;;;;;5.25;1.95;;;;;;;21.22;64.76;99828.13;5039059;28;20025;-75
2023/07/28 01:38:05;;;;;;;6.97;1.90;;;;;;;21.26;64.54;99811.88;5038718;28;20029;-75
2023/07/28 01:40:31;;;;;;;6.43;1.80;;;;;;;21.21;64.49;99802.31;5038976;28;20033;-75
2023/07/28 01:42:57;;;;;;;5.20;1.67;;;;;;;21.11;64.94;99809.13;5035341;28;20030;-75
2023/07/28 01:45:22;;;;;;;5.53;1.70;;;;;;;21.04;65.05;99805.03;5038460;28;20091;-75
2023/07/28 01:47:47;;;;;;;5.73;1.77;;;;;;;21.00;65.26;99811.53;5037010;28;20033;-75
2023/07/28 01:50:13;;;;;;;5.87;1.80;;;;;;;20.92;65.12;99802.09;5037175;28;20067;-75
2023/07/28 01:52:38;;;;;;;5.72;1.50;;;;;;;20.87;65.47;99798.81;5036760;28;20033;-76
2023/07/28 01:55:06;;;;;;;6.80;1.53;;;;;;;20.83;65.35;99799.91;5038199;28;20110;-75
2023/07/28 01:57:33;;;;;;;6.28;1.92;;;;;;;20.83;65.54;99805.28;5036611;28;20571;-75
2023/07/28 01:59:59;;;;;;;4.87;1.70;;;;;;;20.74;65.66;99795.03;5036464;28;20026;-75
2023/07/28 02:02:24;;;;;;;8.32;1.52;;;;;;;20.69;65.99;99797.13;5038134;28;20091;-75
2023/07/28 02:04:50;;;;;;;4.20;1.30;;;;;;;20.62;65.98;99802.81;5038252;28;20061;-75
2023/07/28 02:07:15;;;;;;;4.03;1.40;;;;;;;20.58;65.97;99795.00;5034801;28;20034;-75
2023/07/28 02:09:40;;;;;;;6.80;1.50;;;;;;;20.53;66.12;99794.41;5038518;28;20053;-75
2023/07/28 02:12:06;;;;;;;5.47;1.47;;;;;;;20.46;66.68;99783.16;5038305;28;20323;-75
2023/07/28 02:14:31;;;;;;;5.20;1.43;;;;;;;20.41;66.48;99798.59;5038415;28;20026;-75
2023/07/28 02:16:57;;;;;;;5.97;1.30;;;;;;;20.41;66.39;99793.25;5037976;28;20025;-75
2023/07/28 02:19:22;;;;;;;4.80;1.10;;;;;;;20.45;66.59;99801.00;5037822;28;20033;-75
2023/07/28 02:21:48;;;;;;;8.57;1.43;;;;;;;20.46;66.62;99800.06;5037762;28;20037;-75
2023/07/28 02:24:13;;;;;;;5.50;1.60;;;;;;;20.50;66.60;99798.09;5037956;28;20571;-75
2023/07/28 02:26:38;;;;;;;8.20;1.53;;;;;;;20.52;66.44;99796.19;5037943;28;20055;-75
2023/07/28 02:29:04;;;;;;;7.47;1.80;;;;;;;20.54;66.18;99796.97;5037669;28;20481;-75
2023/07/28 02:31:29;;;;;;;4.43;1.40;;;;;;;20.56;66.20;99788.88;5034756;28;20487;-75
2023/07/28 02:33:55;;;;;;;5.13;1.50;;;;;;;20.62;66.00;99784.06;5037708;28;20041;-75
2023/07/28 02:36:20;;;;;;;5.43;1.60;;;;;;;20.66;66.05;99779.41;5037584;28;20057;-75
2023/07/28 02:38:46;;;;;;;4.93;1.30;;;;;;;20.70;66.16;99777.44;5037778;28;20033;-75
2023/07/28 02:41:11;;;;;;;4.40;1.37;;;;;;;20.74;66.04;99784.34;5037293;28;20069;-75
2023/07/28 02:43:37;;;;;;;5.23;1.30;;;;;;;20.80;65.82;99784.03;5037116;28;20034;-75
2023/07/28 02:46:03;;;;;;;6.07;1.48;;;;;;;20.82;66.00;99776.78;5037452;28;20601;-75
2023/07/28 02:48:28;;;;;;;4.37;1.33;;;;;;;20.81;65.67;99775.06;5035895;28;20029;-75
2023/07/28 02:50:54;;;;;;;6.17;1.60;;;;;;;20.80;65.44;99773.31;5037491;28;20037;-75
2023/07/28 02:53:19;;;;;;;5.18;1.48;;;;;;;20.78;66.01;99769.84;5037393;28;20037;-75
2023/07/28 02:55:46;;;;;;;5.67;1.27;;;;;;;20.75;65.98;99783.38;5037332;28;20029;-75
2023/07/28 02:58:12;;;;;;;6.78;1.50;;;;;;;20.69;66.21;99775.72;5035154;28;20025;-75
2023/07/28 03:00:39;;;;;;;6.57;1.50;;;;;;;20.68;66.20;99780.19;5037019;28;20048;-75
2023/07/28 03:03:05;;;;;;;6.23;1.50;;;;;;;20.68;66.47;99776.66;5037277;28;20037;-75
2023/07/28 03:05:31;;;;;;;5.03;1.63;;;;;;;20.61;66.53;99778.78;5032770;28;20526;-75
2023/07/28 03:07:57;;;;;;;7.07;1.50;;;;;;;20.57;66.52;99762.03;5037285;28;20037;-75
2023/07/28 03:10:22;;;;;;;4.70;1.60;;;;;;;20.56;67.02;99765.66;5038380;28;20670;-75
2023/07/28 03:12:47;;;;;;;4.87;1.80;;;;;;;20.56;66.83;99751.44;5036497;28;20378;-75
2023/07/28 03:15:13;;;;;;;6.10;1.70;;;;;;;20.53;66.87;99757.81;5036865;28;20065;-75
2023/07/28 03:17:38;;;;;;;6.23;1.97;;;;;;;20.52;67.00;99764.09;5037017;28;20474;-76
2023/07/28 03:20:04;;;;;;;7.60;2.00;;;;;;;20.50;67.12;99763.31;5036819;28;20065;-75
2023/07/28 03:22:30;;;;;;;8.25;1.92;;;;;;;20.39;67.66;99758.53;5036751;28;20022;-75
2023/07/28 03:24:56;;;;;;;7.67;2.10;;;;;;;20.37;67.80;99745.25;5036878;28;20029;-75
2023/07/28 03:27:21;;;;;;;7.53;1.90;;;;;;;20.34;67.61;99747.22;5036802;28;20063;-75
2023/07/28 03:29:47;;;;;;;7.97;2.30;;;;;;;20.35;67.83;99743.63;5036680;28;20100;-75
2023/07/28 03:32:12;;;;;;;7.25;2.17;;;;;;;20.36;67.85;99746.19;5033442;28;20040;-75
2023/07/28 03:34:38;;;;;;;6.63;2.33;;;;;;;20.35;67.51;99747.13;5036429;28;20093;-75
2023/07/28 03:37:03;;;;;;;5.43;1.90;;;;;;;20.35;67.55;99747.13;5035187;28;20497;-75
2023/07/28 03:39:30;;;;;;;6.95;2.22;;;;;;;20.36;67.97;99754.22;5036766;28;20032;-75
2023/07/28 03:41:56;;;;;;;5.90;1.77;;;;;;;20.36;67.64;99748.84;5036232;28;20025;-75
2023/07/28 03:44:21;;;;;;;6.90;1.80;;;;;;;20.37;67.82;99761.28;5035337;28;20552;-75
2023/07/28 03:46:47;;;;;;;5.73;1.90;;;;;;;20.37;67.72;99758.59;5036207;28;20036;-75
2023/07/28 03:49:12;;;;;;;7.53;2.10;;;;;;;20.35;67.57;99762.34;5035246;28;20031;-75
2023/07/28 03:51:38;;;;;;;8.70;2.77;;;;;;;20.34;67.69;99768.63;5036525;28;20044;-75
2023/07/28 03:54:03;;;;;;;7.20;2.37;;;;;;;20.33;67.70;99765.06;5036387;28;20056;-75
2023/07/28 03:56:29;;;;;;;5.17;2.00;;;;;;;20.30;68.05;99764.38;5036419;28;20500;-75
2023/07/28 03:58:54;;;;;;;6.10;2.13;;;;;;;20.24;68.01;99773.59;5033371;28;20040;-75
2023/07/28 04:01:21;;;;;;;6.47;2.17;;;;;;;20.16;68.40;99767.78;5036031;28;20042;-75
2023/07/28 04:03:47;;;;;;;8.95;2.10;;;;;;;20.14;68.42;99769.69;5036775;28;20484;-75
2023/07/28 04:06:12;;;;;;;6.77;2.13;;;;;;;20.13;68.28;99767.91;5032666;28;20149;-75
2023/07/28 04:08:39;;;;;;;6.38;1.75;;;;;;;20.08;68.47;99771.69;5036607;28;20104;-75
2023/07/28 04:11:04;;;;;;;6.20;2.10;;;;;;;20.07;68.27;99763.78;5038075;28;20040;-75
2023/07/28 04:13:29;;;;;;;7.13;1.90;;;;;;;20.08;68.16;99765.50;5035923;28;20026;-75
2023/07/28 04:15:55;;;;;;;7.07;1.97;;;;;;;20.08;68.09;99765.50;5036285;28;20060;-75
2023/07/28 04:18:20;;;;;;;4.80;1.80;;;;;;;20.04;68.30;99756.78;5039123;28;20051;-74
2023/07/28 04:20:46;;;;;;;7.30;1.80;;;;;;;20.04;68.51;99764.78;5040434;28;20049;-75
2023/07/28 04:23:12;;;;;;;7.07;2.08;;;;;;;20.03;68.41;99762.22;5040390;28;20466;-75
2023/07/28 04:25:37;;;;;;;6.73;2.30;;;;;;;20.00;68.38;99757.00;5039711;28;20055;-75
2023/07/28 04:28:03;;;;;;;7.47;2.20;;;;;;;19.99;68.54;99749.94;5039990;28;20045;-75
2023/07/28 04:30:28;;;;;;;5.90;1.90;;;;;;;19.99;68.63;99758.81;5040314;28;20033;-75
2023/07/28 04:32:54;;;;;;;7.30;2.30;;;;;;;19.96;68.63;99750.09;5039020;28;20025;-74
2023/07/28 04:35:20;;;;;;;6.83;2.20;;;;;;;19.93;68.58;99753.81;5040109;28;20032;-74
2023/07/28 04:37:45;;;;;;;8.60;2.20;;;;;;;19.90;68.97;99749.44;5040039;28;20291;-75
2023/07/28 04:40:11;;;;;;;5.07;1.98;;;;;;;19.88;68.72;99763.81;5038620;28;20021;-75
2023/07/28 04:42:36;;;;;;;6.83;1.90;;;;;;;19.84;68.99;99762.25;5039455;28;20056;-75
2023/07/28 04:45:03;;;;;;;8.02;2.28;;;;;;;19.82;68.92;99780.16;5039930;28;20112;-75
2023/07/28 04:47:28;;;;;;;5.80;1.87;;;;;;;19.82;69.08;99785.50;5040024;28;20103;-75
2023/07/28 04:49:54;;;;;;;5.32;2.00;;;;;;;19.81;69.15;99781.97;5039834;28;20017;-75
2023/07/28 04:52:19;;;;;;;6.60;1.90;;;;;;;19.83;68.76;99773.88;5039989;28;20139;-75
2023/07/28 04:54:45;;;;;;;9.00;2.07;;;;;;;19.87;69.04;99754.06;5039511;28;20021;-75
2023/07/28 04:57:10;;;;;;;11.53;2.40;;;;;;;19.92;68.72;99760.09;5039454;28;20021;-74
2023/07/28 04:59:35;;;;;;;4.97;2.00;;;;;;;19.95;68.57;99746.56;5034364;28;20032;-74
2023/07/28 05:02:01;;;;;;;5.72;2.08;;;;;;;19.97;68.08;99755.38;5039644;28;20017;-74
2023/07/28 05:04:26;;;;;;;7.13;1.90;;;;;;;19.99;68.19;99753.47;5039368;28;20422;-74
2023/07/28 05:06:52;;;;;;;6.37;2.10;;;;;;;20.01;68.01;99756.06;5036755;28;20028;-74
2023/07/28 05:09:17;;;;;;;6.67;1.80;;;;;;;20.04;68.11;99764.78;5039810;28;20036;-74
2023/07/28 05:11:43;;;;;;;7.07;2.10;;;;;;;20.05;68.32;99771.03;5040271;28;20028;-74
2023/07/28 05:14:08;;;;;;;8.40;2.33;;;;;;;20.05;68.00;99776.38;5039577;28;20017;-74
2023/07/28 05:16:34;;;;;;;6.03;2.20;;;;;;;20.16;67.61;99778.47;5039191;28;20113;-74
2023/07/28 05:19:00;;;;;;;5.67;2.00;;;;;;;20.33;67.28;99780.25;5036092;28;20633;-74
2023/07/28 05:21:25;;;;;;;7.30;2.13;;;;;;;20.54;66.66;99769.38;5038106;28;20105;-74
2023/07/28 05:23:51;;;;;;;5.17;2.10;;;;;;;20.76;66.15;99772.63;5039389;28;20025;-74
2023/07/28 05:26:16;;;;;;;7.00;2.20;;;;;;;21.02;65.54;99773.03;5039158;28;20025;-75
2023/07/28 05:28:42;;;;;;;5.93;2.22;;;;;;;21.20;64.85;99768.44;5038334;28;20035;-75
2023/07/28 05:31:07;;;;;;;9.17;2.67;;;;;;;21.30;64.66;99770.59;5037767;28;20021;-75
2023/07/28 05:33:33;;;;;;;7.97;2.33;;;;;;;21.26;64.88;99769.03;5039412;28;20025;-75
2023/07/28 05:36:03;;;;;;;9.30;3.10;;;;;;;21.14;64.97;99771.47;5039021;28;20025;-75
2023/07/28 05:38:29;;;;;;;6.70;2.33;;;;;;;21.18;65.23;99773.03;5039207;28;20068;-75
2023/07/28 05:41:02;;;;;;;7.47;2.40;;;;;;;21.15;65.64;99773.19;5039084;28;20027;-75
2023/07/28 05:43:31;;;;;;;6.93;2.72;;;;;;;21.05;66.13;99771.97;5037499;28;20024;-75
2023/07/28 05:45:58;;;;;;;7.57;2.60;;;;;;;21.20;65.29;99770.25;5038744;28;20034;-75
2023/07/28 05:48:23;;;;;;;8.17;2.33;;;;;;;21.45;64.89;99775.06;5038859;28;20508;-75
2023/07/28 05:50:51;;;;;;;7.93;2.85;;;;;;;21.64;64.55;99780.25;5038629;28;20036;-74
2023/07/28 05:53:16;;;;;;;9.52;2.70;;;;;;;21.80;63.96;99772.19;5038816;28;20080;-75
2023/07/28 05:55:42;;;;;;;6.73;2.67;;;;;;;21.80;64.36;99774.84;5038592;28;20026;-75
2023/07/28 05:58:07;;;;;;;8.20;2.50;;;;;;;21.84;63.88;99774.69;5036854;28;20017;-75
2023/07/28 06:00:32;;;;;;;7.57;2.70;;;;;;;21.95;63.74;99777.59;5038562;28;20057;-75
2023/07/28 06:02:58;;;;;;;8.00;2.90;;;;;;;21.99;63.65;99779.13;5038674;28;20022;-75
2023/07/28 06:05:23;;;;;;;6.47;2.75;;;;;;;22.00;63.82;99785.38;5033546;28;20073;-75
2023/07/28 06:07:48;;;;;;;8.50;3.37;;;;;;;21.95;64.03;99782.97;5038616;28;20053;-75
2023/07/28 06:10:14;;;;;;;7.17;3.00;;;;;;;21.91;64.40;99792.13;5040109;28;20021;-75
2023/07/28 06:12:39;;;;;;;7.00;2.60;;;;;;;21.96;64.27;99795.41;5036845;28;20021;-75
2023/07/28 06:15:05;;;;;;;7.27;3.23;;;;;;;21.99;64.70;99803.25;5038297;28;20021;-75
2023/07/28 06:17:31;;;;;;;6.57;3.07;;;;;;;22.02;64.57;99805.75;5034247;28;20265;-75
2023/07/28 06:19:56;;;;;;;7.72;3.15;;;;;;;22.02;64.82;99805.75;5038256;28;20028;-75
2023/07/28 06:22:22;;;;;;;10.93;3.37;;;;;;;22.02;65.05;99813.81;5038023;28;20025;-75
2023/07/28 06:24:47;;;;;;;10.27;3.60;;;;;;;22.04;65.32;99817.25;5038104;28;20068;-74
2023/07/28 06:27:12;;;;;;;9.33;3.10;;;;;;;22.11;65.66;99816.91;5037946;28;20052;-75
2023/07/28 06:29:38;;;;;;;6.70;3.53;;;;;;;22.17;65.24;99820.06;5037947;28;20030;-75
2023/07/28 06:32:03;;;;;;;7.13;3.30;;;;;;;22.35;65.24;99823.47;5037701;28;20091;-75
2023/07/28 06:34:29;;;;;;;6.70;3.43;;;;;;;22.44;65.02;99822.06;5036528;28;20036;-75
2023/07/28 06:36:54;;;;;;;9.13;3.23;;;;;;;22.55;64.82;99818.75;5037873;28;20026;-77
2023/07/28 06:39:20;;;;;;;9.27;3.10;;;;;;;22.53;64.91;99815.28;5037293;28;20026;-75
2023/07/28 06:41:45;;;;;;;7.33;2.43;;;;;;;22.50;65.20;99821.72;5034360;28;20029;-76
2023/07/28 06:44:10;;;;;;;6.60;2.67;;;;;;;22.47;65.18;99819.22;5032310;28;20026;-75
2023/07/28 06:46:36;;;;;;;7.67;2.97;;;;;;;22.40;65.25;99814.28;5036481;28;20021;-76
2023/07/28 06:49:01;;;;;;;5.47;2.77;;;;;;;22.32;65.74;99812.94;5037895;28;20086;-76
2023/07/28 06:51:27;;;;;;;10.57;3.20;;;;;;;22.50;65.38;99818.16;5033997;28;20264;-75
2023/07/28 06:53:52;;;;;;;9.13;3.20;;;;;;;22.75;65.11;99816.63;5033079;28;20312;-77
2023/07/28 06:56:18;;;;;;;10.63;3.37;;;;;;;22.94;64.77;99824.41;5019583;28;20111;-77
2023/07/28 06:58:43;;;;;;;8.65;3.08;;;;;;;23.07;64.36;99819.13;5033423;28;20108;-78
2023/07/28 07:01:10;;;;;;;6.20;3.07;;;;;;;23.19;64.00;99818.34;5036548;28;20029;-78
2023/07/28 07:03:36;;;;;;;7.32;3.10;;;;;;;23.34;63.87;99810.28;5037106;28;20048;-78
2023/07/28 07:06:02;;;;;;;6.63;3.23;;;;;;;23.58;63.38;99812.34;5033579;28;20041;-77
2023/07/28 07:08:27;;;;;;;7.55;3.00;;;;;;;23.70;62.84;99810.66;5034675;28;20029;-78
2023/07/28 07:10:53;;;;;;;6.60;2.43;;;;;;;23.71;62.58;99812.38;5039040;28;20029;-78
2023/07/28 07:13:19;;;;;;;7.25;2.40;;;;;;;23.86;62.17;99810.50;5036810;28;20561;-78
2023/07/28 07:15:45;;;;;;;10.50;2.90;;;;;;;23.93;61.77;99809.09;5035978;28;20025;-78
2023/07/28 07:18:11;;;;;;;6.93;2.40;;;;;;;24.07;61.50;99814.44;5032744;28;21372;-78
2023/07/28 07:20:38;;;;;;;6.40;2.50;;;;;;;24.24;61.17;99812.44;5037271;28;20025;-77
2023/07/28 07:23:06;;;;;;;6.53;2.47;;;;;;;24.34;61.26;99813.53;5026184;28;20036;-78
2023/07/28 07:25:32;;;;;;;6.97;2.53;;;;;;;24.53;60.72;99817.63;5037145;28;20052;-78
2023/07/28 07:27:57;;;;;;;6.78;2.15;;;;;;;24.56;60.64;99819.22;5036820;28;20063;-78
2023/07/28 07:30:22;;;;;;;8.60;2.30;;;;;;;24.52;60.29;99813.22;5036759;28;20029;-78
2023/07/28 07:32:48;;;;;;;5.03;2.20;;;;;;;24.48;60.54;99817.09;5036841;28;20025;-78
2023/07/28 07:35:13;;;;;;;7.97;2.50;;;;;;;24.51;60.09;99817.72;5036824;28;20029;-78
2023/07/28 07:37:40;;;;;;;6.28;2.10;;;;;;;24.73;59.68;99804.59;5036900;28;20036;-78
2023/07/28 07:40:07;;;;;;;5.20;2.10;;;;;;;24.93;59.17;99812.13;5036847;28;20083;-78
2023/07/28 07:42:48;;;;;;;6.65;2.40;;;;;;;25.18;58.75;99817.59;5033244;28;20032;-78
2023/07/28 07:45:14;;;;;;;4.20;2.00;;;;;;;25.46;57.73;99816.44;5035228;28;20113;-78
2023/07/28 07:47:43;;;;;;;4.55;2.17;;;;;;;25.69;57.05;99818.41;5036730;28;20064;-78
2023/07/28 07:50:09;;;;;;;4.63;2.00;;;;;;;25.89;56.59;99819.59;5036611;28;20030;-79
2023/07/28 07:52:36;;;;;;;7.15;2.25;;;;;;;26.03;56.35;99816.72;5036456;28;20405;-79
2023/07/28 07:55:03;;;;;;;6.20;2.38;;;;;;;26.32;56.33;99827.13;5036409;28;20033;-79
2023/07/28 07:57:28;;;;;;;5.85;2.00;;;;;;;26.70;55.62;99824.25;5036420;28;20025;-79
2023/07/28 07:59:54;;;;;;;5.13;2.20;;;;;;;27.05;55.03;99818.78;5033114;28;20036;-79
2023/07/28 08:02:19;;;;;;;5.40;2.30;;;;;;;27.15;54.67;99823.41;5034761;28;20294;-79
2023/07/28 08:04:45;;;;;;;7.27;2.00;;;;;;;27.15;54.58;99816.19;5035256;28;20076;-78
2023/07/28 08:07:10;;;;;;;6.60;2.43;;;;;;;26.99;53.94;99813.00;5035002;28;20029;-78
2023/07/28 08:09:37;;;;;;;5.47;2.17;;;;;;;26.76;54.67;99816.50;5036429;28;20449;-78
2023/07/28 08:12:03;;;;;;;6.13;2.30;;;;;;;26.47;54.79;99808.03;5037376;28;20061;-78
2023/07/28 08:14:28;;;;;;;5.10;2.10;;;;;;;26.28;55.21;99820.25;5036388;28;20037;-79
2023/07/28 08:16:53;;;;;;;7.40;2.17;;;;;;;26.18;55.62;99805.75;5036227;28;20033;-80
2023/07/28 08:19:19;;;;;;;5.45;2.30;;;;;;;26.11;55.79;99807.16;5034732;28;20482;-80
2023/07/28 08:21:44;;;;;;;5.03;2.00;;;;;;;26.09;55.03;99810.84;5030453;28;20033;-79
2023/07/28 08:24:11;;;;;;;6.03;2.30;;;;;;;26.20;55.32;99811.91;5032035;28;20021;-78
2023/07/28 08:26:37;;;;;;;7.05;2.30;;;;;;;26.29;55.42;99811.19;5035670;28;20022;-78
2023/07/28 08:29:02;;;;;;;5.17;2.50;;;;;;;26.26;54.92;99816.81;5036309;28;20039;-78
2023/07/28 08:31:28;;;;;;;5.22;2.00;;;;;;;26.27;54.88;99806.88;5036040;28;20049;-78
2023/07/28 08:33:53;;;;;;;6.13;2.33;;;;;;;26.32;54.97;99805.53;5035191;28;20114;-78
2023/07/28 08:36:18;;;;;;;6.13;2.47;;;;;;;26.36;54.84;99798.91;5036101;28;20030;-78
2023/07/28 08:38:45;;;;;;;5.13;2.20;;;;;;;26.42;54.32;99811.09;5034821;28;20079;-78
2023/07/28 08:41:10;;;;;;;6.78;2.55;;;;;;;26.44;54.04;99802.88;5036133;28;20056;-78
2023/07/28 08:43:36;;;;;;;5.03;2.20;;;;;;;26.61;53.95;99802.38;5035022;28;20489;-78
2023/07/28 08:46:04;;;;;;;6.40;2.50;;;;;;;26.81;53.71;99797.25;5034827;28;20021;-78
2023/07/28 08:48:30;;;;;;;6.75;2.55;;;;;;;26.92;52.59;99797.28;5036074;28;20025;-78
2023/07/28 08:50:55;;;;;;;5.10;2.40;;;;;;;27.06;52.84;99798.00;5036501;28;20024;-78
2023/07/28 08:53:21;;;;;;;7.30;2.20;;;;;;;27.32;52.51;99786.88;5036170;28;20441;-78
2023/07/28 08:55:48;;;;;;;4.63;2.20;;;;;;;27.61;51.81;99794.44;5034635;28;20061;-79
2023/07/28 08:58:20;;;;;;;5.90;2.20;;;;;;;27.83;51.24;99781.84;5035846;28;20041;-78
2023/07/28 09:00:50;;;;;;;4.38;2.20;;;;;;;27.87;50.50;99786.88;5034702;28;20037;-78
2023/07/28 09:03:19;;;;;;;4.95;2.20;;;;;;;27.86;50.93;99793.25;5036837;28;20026;-78
2023/07/28 09:05:46;;;;;;;6.20;2.40;;;;;;;27.75;51.19;99799.56;5036497;28;20041;-78
2023/07/28 09:08:19;;;;;;;5.67;2.60;;;;;;;27.60;50.88;99800.84;5039642;28;20036;-78
2023/07/28 09:10:50;;;;;;;5.82;2.25;;;;;;;27.46;51.38;99800.16;5040683;28;20045;-78
2023/07/28 09:13:17;;;;;;;5.70;2.40;;;;;;;27.30;51.21;99802.38;5039545;28;20037;-79
2023/07/28 09:15:43;;;;;;;6.07;2.38;;;;;;;27.16;51.33;99801.69;5034852;28;20021;-79
2023/07/28 09:18:12;;;;;;;8.50;2.70;;;;;;;26.98;51.65;99800.47;5035622;28;20026;-78
2023/07/28 09:20:39;;;;;;;6.30;2.50;;;;;;;26.79;51.70;99801.91;5031522;28;20033;-80
2023/07/28 09:23:07;;;;;;;5.35;2.15;;;;;;;26.69;52.35;99806.34;5038739;28;20942;-80
2023/07/28 09:25:33;;;;;;;7.47;2.63;;;;;;;26.69;52.15;99812.59;5039434;28;20025;-78
2023/07/28 09:27:59;;;;;;;7.03;2.57;;;;;;;26.72;52.71;99811.50;5038703;28;20026;-79
2023/07/28 09:30:25;;;;;;;5.40;2.15;;;;;;;26.76;52.14;99812.97;5036964;28;20489;-80
2023/07/28 09:32:53;;;;;;;5.68;2.20;;;;;;;26.77;52.15;99809.28;5035187;28;20033;-80
2023/07/28 09:35:21;;;;;;;5.57;2.60;;;;;;;26.81;51.96;99808.03;5043033;28;20017;-80
2023/07/28 09:37:48;;;;;;;6.75;2.30;;;;;;;26.86;51.95;99811.25;5041882;28;20017;-80
2023/07/28 09:40:18;;;;;;;6.32;2.63;;;;;;;26.91;51.89;99806.38;5038258;28;20029;-80
2023/07/28 09:42:49;;;;;;;6.32;2.30;;;;;;;26.97;51.54;99809.56;5035996;28;20025;-80
2023/07/28 09:45:15;;;;;;;5.10;2.50;;;;;;;27.05;51.67;99807.09;5038602;28;20022;-80
2023/07/28 09:47:44;;;;;;;5.33;2.20;;;;;;;27.15;51.25;99808.06;5038690;28;20035;-80
2023/07/28 09:50:11;;;;;;;5.30;2.38;;;;;;;27.21;50.80;99807.56;5038739;28;20474;-80
2023/07/28 09:52:44;;;;;;;7.70;2.75;;;;;;;27.32;50.49;99805.81;5037414;28;20092;-80
2023/07/28 09:55:11;;;;;;;6.85;2.30;;;;;;;27.43;50.01;99805.81;5038379;28;20056;-80
2023/07/28 09:57:40;;;;;;;5.55;2.20;;;;;;;27.58;49.26;99803.69;5038225;28;20037;-80
2023/07/28 10:00:10;;;;;;;6.43;2.67;;;;;;;27.74;49.34;99802.44;5038031;28;20027;-80
2023/07/28 10:02:36;;;;;;;5.50;2.47;;;;;;;28.00;48.70;99797.50;5035838;28;20029;-80
2023/07/28 10:05:02;;;;;;;5.40;2.50;;;;;;;28.32;48.20;99790.34;5037285;28;20099;-80
2023/07/28 10:07:28;;;;;;;5.03;2.35;;;;;;;28.66;47.53;99781.97;5038506;28;20048;-80
2023/07/28 10:09:54;;;;;;;5.63;2.40;;;;;;;29.05;47.71;99784.88;5039104;28;20091;-80
2023/07/28 10:12:26;;;;;;;6.30;2.28;;;;;;;29.16;47.66;99789.31;5038053;28;20017;-80
2023/07/28 10:15:03;;;;;;;7.63;2.40;;;;;;;29.17;47.72;99790.16;5037437;28;20029;-80
2023/07/28 10:17:34;;;;;;;6.55;2.47;;;;;;;29.19;47.65;99777.34;5036869;28;20112;-81
2023/07/28 10:20:02;;;;;;;5.73;2.20;;;;;;;29.19;48.08;99786.31;5037028;28;20096;-80
2023/07/28 10:22:27;;;;;;;7.30;2.20;;;;;;;29.17;47.66;99782.03;5038097;28;20026;-80
2023/07/28 10:24:56;;;;;;;4.77;2.33;;;;;;;29.19;47.12;99783.63;5038279;28;20036;-80
2023/07/28 10:27:34;;;;;;;4.95;2.38;;;;;;;29.17;46.66;99779.31;5037516;28;20052;-80
2023/07/28 10:30:04;;;;;;;5.50;2.60;;;;;;;29.13;46.70;99778.75;5038190;28;20021;-79
2023/07/28 10:32:40;;;;;;;5.82;2.40;;;;;;;29.11;46.88;99772.63;5029327;28;20033;-80
2023/07/28 10:35:31;;;;;;;5.00;2.17;;;;;;;29.27;46.87;99773.91;5037785;28;20544;-80
2023/07/28 10:37:57;;;;;;;6.83;2.47;;;;;;;29.38;46.88;99765.66;5034908;28;20029;-80
2023/07/28 10:40:24;;;;;;;4.97;2.40;;;;;;;29.41;45.50;99751.84;5037830;28;20520;-79
2023/07/28 10:42:53;;;;;;;5.93;2.67;;;;;;;29.30;45.02;99754.66;5037910;28;20062;-80
2023/07/28 10:45:20;;;;;;;6.28;2.45;;;;;;;29.15;45.39;99757.78;5037710;28;20052;-80
2023/07/28 10:47:45;;;;;;;6.82;2.45;;;;;;;29.13;45.07;99762.50;5037811;28;20510;-80
2023/07/28 10:50:12;;;;;;;8.03;2.90;;;;;;;29.05;45.15;99767.72;5036620;28;20041;-80
2023/07/28 10:52:41;;;;;;;6.20;2.72;;;;;;;29.05;45.00;99762.31;5037725;28;20025;-80
2023/07/28 10:55:20;;;;;;;7.13;2.80;;;;;;;28.99;44.66;99757.44;5037499;28;20094;-80
2023/07/28 10:57:47;;;;;;;7.97;3.00;;;;;;;28.90;44.83;99753.69;5037346;28;20468;-79
2023/07/28 11:00:15;;;;;;;5.17;2.80;;;;;;;28.68;44.94;99742.03;5037370;28;20048;-80
2023/07/28 11:02:52;;;;;;;8.35;2.90;;;;;;;28.46;45.84;99749.38;5036320;28;20056;-80
2023/07/28 11:05:26;;;;;;;6.53;2.92;;;;;;;28.43;45.70;99752.34;5033558;28;20391;-80
2023/07/28 11:07:55;;;;;;;6.18;2.72;;;;;;;28.50;45.83;99739.13;5037500;28;20120;-79
2023/07/28 11:10:21;;;;;;;8.35;2.90;;;;;;;28.60;46.20;99736.47;5038947;28;20060;-80
2023/07/28 11:12:50;;;;;;;6.67;2.80;;;;;;;28.67;46.11;99739.50;5037027;28;20056;-80
2023/07/28 11:15:16;;;;;;;6.35;2.95;;;;;;;28.67;46.08;99739.50;5036961;28;20037;-80
2023/07/28 11:17:46;;;;;;;7.32;2.80;;;;;;;28.58;45.79;99733.91;5033558;28;20037;-80
2023/07/28 11:20:22;;;;;;;6.82;2.70;;;;;;;28.53;46.16;99727.16;5037362;28;20033;-79
2023/07/28 11:22:54;;;;;;;6.97;2.85;;;;;;;28.50;45.85;99729.16;5036897;28;20045;-80
2023/07/28 11:25:20;;;;;;;5.90;3.03;;;;;;;28.50;46.36;99722.88;5037087;28;20601;-80
2023/07/28 11:27:47;;;;;;;6.80;3.20;;;;;;;28.46;46.01;99724.16;5035204;28;20021;-80
2023/07/28 11:30:14;;;;;;;5.45;2.95;;;;;;;28.39;45.98;99731.94;5037096;28;20033;-80
2023/07/28 11:32:42;;;;;;;5.72;2.55;;;;;;;28.39;46.43;99733.81;5036860;28;20029;-80